createdAt,value
2018-12-07T00:01:50.106Z,11.47
2018-12-07T00:04:18.325Z,12.43
2018-12-07T00:06:46.494Z,12.70
2018-12-07T00:09:14.806Z,10.00
2018-12-07T00:11:43.062Z,11.53
2018-12-07T00:14:11.332Z,10.87
2018-12-07T00:16:40.772Z,11.23
2018-12-07T00:19:09.004Z,11.20
2018-12-07T00:21:37.178Z,10.90
2018-12-07T00:24:05.385Z,11.73
2018-12-07T00:26:33.625Z,10.97
2018-12-07T00:29:01.805Z,10.63
2018-12-07T00:31:30.265Z,9.00
2018-12-07T00:33:58.449Z,10.60
2018-12-07T00:36:26.622Z,9.90
2018-12-07T00:38:54.829Z,10.03
2018-12-07T00:41:23.260Z,11.33
2018-12-07T00:43:51.761Z,11.47
2018-12-07T00:46:19.982Z,9.63
2018-12-07T00:48:48.217Z,10.50
2018-12-07T00:51:16.486Z,10.27
2018-12-07T00:53:44.705Z,9.63
2018-12-07T00:56:12.932Z,10.33
2018-12-07T00:58:41.119Z,8.97
2018-12-07T01:01:09.417Z,12.57
2018-12-07T01:03:37.669Z,11.47
2018-12-07T01:06:05.851Z,9.37
2018-12-07T01:08:34.145Z,8.03
2018-12-07T01:11:02.386Z,9.47
2018-12-07T01:13:30.553Z,8.43
2018-12-07T01:15:58.759Z,9.37
2018-12-07T01:18:26.916Z,9.13
2018-12-07T01:20:55.077Z,10.50
2018-12-07T01:23:23.288Z,10.63
2018-12-07T01:25:51.525Z,9.80
2018-12-07T01:28:19.700Z,9.10
2018-12-07T01:30:47.930Z,8.97
2018-12-07T01:33:16.152Z,11.40
2018-12-07T01:35:44.420Z,10.13
2018-12-07T01:38:12.649Z,11.00
2018-12-07T01:40:40.873Z,10.37
2018-12-07T01:43:09.051Z,10.83
2018-12-07T01:45:37.353Z,9.83
2018-12-07T01:48:05.600Z,10.57
2018-12-07T01:50:33.768Z,9.57
2018-12-07T01:53:01.981Z,9.47
2018-12-07T01:55:30.317Z,9.20
2018-12-07T01:57:58.497Z,10.13
2018-12-07T02:00:26.801Z,9.47
2018-12-07T02:02:55.049Z,9.47
2018-12-07T02:05:23.221Z,9.90
2018-12-07T02:07:51.423Z,8.00
2018-12-07T02:10:19.665Z,8.53
2018-12-07T02:12:47.841Z,9.50
2018-12-07T02:15:16.060Z,8.93
2018-12-07T02:17:44.215Z,8.97
2018-12-07T02:20:12.491Z,7.00
2018-12-07T02:22:40.777Z,8.13
2018-12-07T02:25:09.009Z,8.00
2018-12-07T02:27:42.733Z,9.00
2018-12-07T02:30:10.990Z,8.40
2018-12-07T02:32:39.279Z,8.37
2018-12-07T02:35:07.608Z,8.90
2018-12-07T02:37:35.926Z,9.60
2018-12-07T02:40:04.613Z,10.17
2018-12-07T02:42:32.813Z,10.43
2018-12-07T02:45:01.057Z,7.67
2018-12-07T02:47:29.365Z,9.37
2018-12-07T02:49:57.638Z,8.37
2018-12-07T02:52:25.984Z,8.30
2018-12-07T02:54:54.263Z,8.53
2018-12-07T02:57:22.538Z,7.40
2018-12-07T02:59:50.768Z,7.53
2018-12-07T03:02:18.944Z,8.20
2018-12-07T03:04:47.156Z,12.43
2018-12-07T03:07:15.290Z,9.93
2018-12-07T03:09:43.558Z,7.67
2018-12-07T03:12:11.769Z,7.67
2018-12-07T03:14:39.913Z,7.57
2018-12-07T03:17:08.094Z,6.20
2018-12-07T03:19:36.416Z,8.70
2018-12-07T03:22:04.641Z,8.50
2018-12-07T03:24:32.829Z,8.00
2018-12-07T03:27:01.112Z,6.73
2018-12-07T03:29:29.256Z,9.97
2018-12-07T03:31:57.433Z,7.67
2018-12-07T03:34:25.629Z,7.37
2018-12-07T03:36:53.773Z,9.10
2018-12-07T03:39:21.945Z,8.83
2018-12-07T03:41:50.157Z,7.67
2018-12-07T03:44:18.401Z,9.07
2018-12-07T03:46:46.677Z,8.20
2018-12-07T03:49:15.097Z,9.80
2018-12-07T03:51:43.233Z,9.30
2018-12-07T03:54:11.418Z,8.20
2018-12-07T03:56:40.629Z,7.10
2018-12-07T03:59:08.780Z,8.20
2018-12-07T04:01:37.052Z,9.77
2018-12-07T04:04:05.370Z,11.50
2018-12-07T04:06:33.617Z,7.70
2018-12-07T04:09:01.726Z,6.93
2018-12-07T04:11:29.909Z,6.80
2018-12-07T04:13:58.119Z,7.00
2018-12-07T04:16:26.392Z,7.60
2018-12-07T04:18:54.800Z,7.97
2018-12-07T04:21:22.950Z,8.63
2018-12-07T04:23:51.121Z,7.00
2018-12-07T04:26:19.261Z,7.40
2018-12-07T04:28:47.467Z,6.43
2018-12-07T04:31:15.746Z,7.27
2018-12-07T04:33:43.985Z,7.20
2018-12-07T04:36:12.193Z,6.00
2018-12-07T04:38:40.470Z,8.40
2018-12-07T04:41:08.778Z,7.73
2018-12-07T04:43:36.935Z,5.80
2018-12-07T04:46:05.192Z,7.23
2018-12-07T04:48:33.409Z,5.53
2018-12-07T04:51:01.545Z,6.63
2018-12-07T04:53:30.727Z,6.90
2018-12-07T04:55:59.045Z,6.80
2018-12-07T04:58:27.193Z,8.03
2018-12-07T05:00:55.361Z,6.70
2018-12-07T05:03:23.665Z,7.93
2018-12-07T05:05:51.811Z,5.97
2018-12-07T05:08:20.085Z,6.03
2018-12-07T05:10:48.301Z,6.93
2018-12-07T05:13:16.436Z,6.10
2018-12-07T05:15:44.610Z,6.80
2018-12-07T05:18:12.806Z,5.87
2018-12-07T05:20:40.989Z,5.63
2018-12-07T05:23:09.224Z,6.93
2018-12-07T05:25:37.429Z,5.83
2018-12-07T05:28:05.576Z,6.40
2018-12-07T05:30:33.763Z,6.23
2018-12-07T05:33:02.057Z,6.30
2018-12-07T05:35:30.193Z,6.30
2018-12-07T05:37:58.445Z,5.90
2018-12-07T05:40:26.677Z,10.43
2018-12-07T05:42:54.826Z,6.73
2018-12-07T05:45:22.994Z,6.07
2018-12-07T05:47:51.194Z,6.00
2018-12-07T05:50:19.333Z,6.37
2018-12-07T05:52:47.517Z,7.17
2018-12-07T05:55:15.836Z,6.70
2018-12-07T05:57:43.956Z,7.67
2018-12-07T06:00:12.138Z,7.43
2018-12-07T06:02:40.329Z,6.93
2018-12-07T06:05:08.728Z,6.57
2018-12-07T06:07:36.860Z,7.73
2018-12-07T06:10:05.174Z,7.00
2018-12-07T06:12:33.429Z,9.67
2018-12-07T06:15:01.577Z,8.03
2018-12-07T06:17:29.829Z,7.00
2018-12-07T06:19:57.943Z,9.80
2018-12-07T06:22:26.208Z,7.13
2018-12-07T06:24:54.413Z,6.03
2018-12-07T06:27:22.661Z,5.67
2018-12-07T06:29:50.861Z,5.53
2018-12-07T06:32:19.033Z,7.93
2018-12-07T06:34:47.172Z,7.13
2018-12-07T06:37:15.349Z,7.33
2018-12-07T06:39:43.617Z,6.03
2018-12-07T06:42:11.805Z,6.13
2018-12-07T06:44:39.980Z,7.20
2018-12-07T06:47:08.180Z,5.60
2018-12-07T06:49:36.428Z,5.07
2018-12-07T06:52:04.709Z,5.67
2018-12-07T06:54:32.896Z,5.73
2018-12-07T06:57:01.049Z,5.33
2018-12-07T06:59:29.214Z,5.90
2018-12-07T07:01:57.436Z,5.30
2018-12-07T07:04:25.565Z,7.33
2018-12-07T07:06:53.743Z,6.90
2018-12-07T07:09:21.941Z,5.17
2018-12-07T07:11:50.084Z,4.73
2018-12-07T07:14:18.261Z,9.60
2018-12-07T07:16:46.464Z,9.37
2018-12-07T07:19:14.665Z,10.17
2018-12-07T07:21:42.904Z,11.23
2018-12-07T07:24:11.127Z,22.83
2018-12-07T07:26:39.336Z,17.20
2018-12-07T07:29:07.505Z,11.40
2018-12-07T07:31:35.705Z,5.30
2018-12-07T07:34:03.853Z,4.70
2018-12-07T07:36:32.025Z,4.77
2018-12-07T07:39:00.225Z,4.77
2018-12-07T07:41:28.444Z,8.53
2018-12-07T07:43:56.664Z,3.87
2018-12-07T07:46:24.956Z,4.10
2018-12-07T07:48:53.282Z,4.37
2018-12-07T07:51:21.477Z,4.80
2018-12-07T07:53:49.674Z,5.30
2018-12-07T07:56:17.825Z,7.80
2018-12-07T07:58:45.992Z,5.07
2018-12-07T08:01:14.201Z,5.53
2018-12-07T08:03:42.341Z,5.30
2018-12-07T08:06:10.627Z,4.77
2018-12-07T08:08:38.937Z,4.50
2018-12-07T08:11:07.060Z,4.87
2018-12-07T08:13:35.236Z,6.00
2018-12-07T08:16:03.540Z,8.00
2018-12-07T08:18:31.703Z,4.47
2018-12-07T08:20:59.873Z,4.03
2018-12-07T08:23:28.061Z,4.00
2018-12-07T08:25:56.312Z,5.33
2018-12-07T08:28:24.581Z,2.53
2018-12-07T08:30:52.793Z,6.60
2018-12-07T08:33:20.938Z,5.83
2018-12-07T08:35:49.104Z,3.37
2018-12-07T08:38:17.304Z,3.90
2018-12-07T08:40:45.524Z,3.00
2018-12-07T08:43:13.636Z,3.13
2018-12-07T08:45:41.825Z,3.13
2018-12-07T08:48:09.971Z,2.50
2018-12-07T08:50:38.253Z,3.17
2018-12-07T08:53:06.457Z,3.33
2018-12-07T08:55:34.608Z,2.57
2018-12-07T08:58:02.865Z,3.23
2018-12-07T09:00:31.064Z,2.33
2018-12-07T09:02:59.217Z,2.70
2018-12-07T09:05:27.384Z,3.77
2018-12-07T09:07:55.597Z,3.53
2018-12-07T09:10:23.735Z,2.40
2018-12-07T09:12:52.014Z,3.10
2018-12-07T09:15:20.220Z,2.90
2018-12-07T09:17:48.889Z,3.20
2018-12-07T09:20:17.153Z,2.67
2018-12-07T09:22:45.364Z,4.00
2018-12-07T09:25:13.493Z,3.67
2018-12-07T09:27:41.665Z,2.40
2018-12-07T09:30:09.880Z,2.87
2018-12-07T09:32:38.016Z,2.33
2018-12-07T09:35:06.512Z,8.27
2018-12-07T09:37:34.695Z,1.90
2018-12-07T09:40:02.945Z,2.20
2018-12-07T09:42:31.120Z,2.83
2018-12-07T09:44:59.333Z,3.27
2018-12-07T09:47:27.465Z,10.97
2018-12-07T09:49:55.729Z,4.83
2018-12-07T09:52:24.041Z,2.90
2018-12-07T09:54:52.201Z,2.50
2018-12-07T09:57:20.356Z,2.47
2018-12-07T09:59:48.565Z,3.70
2018-12-07T10:02:16.705Z,2.30
2018-12-07T10:04:44.872Z,2.67
2018-12-07T10:07:13.088Z,1.97
2018-12-07T10:09:41.328Z,1.87
2018-12-07T10:12:09.564Z,3.10
2018-12-07T10:14:37.800Z,2.77
2018-12-07T10:17:05.958Z,3.40
2018-12-07T10:19:34.124Z,1.67
2018-12-07T10:22:03.790Z,1.80
2018-12-07T10:24:31.906Z,1.30
2018-12-07T10:27:06.221Z,1.90
2018-12-07T10:29:34.629Z,1.17
2018-12-07T10:32:02.780Z,0.90
2018-12-07T10:34:30.981Z,1.60
2018-12-07T10:36:59.229Z,1.90
2018-12-07T10:39:27.401Z,2.03
2018-12-07T10:41:55.612Z,3.33
2018-12-07T10:44:23.749Z,1.57
2018-12-07T10:46:52.036Z,1.73
2018-12-07T10:49:20.241Z,1.87
2018-12-07T10:51:48.377Z,1.20
2018-12-07T10:54:16.549Z,2.57
2018-12-07T10:56:44.744Z,2.00
2018-12-07T10:59:12.888Z,2.33
2018-12-07T11:01:46.532Z,2.17
2018-12-07T11:04:20.236Z,3.30
2018-12-07T11:06:53.728Z,1.60
2018-12-07T11:09:27.457Z,1.13
2018-12-07T11:12:01.096Z,2.80
2018-12-07T11:14:34.837Z,2.53
2018-12-07T11:17:08.434Z,1.93
2018-12-07T11:19:42.196Z,2.63
2018-12-07T11:22:16.081Z,1.87
2018-12-07T11:24:49.880Z,4.20
2018-12-07T11:27:23.521Z,2.87
2018-12-07T11:29:57.238Z,1.67
2018-12-07T11:33:31.373Z,2.20
2018-12-07T11:35:59.513Z,2.70
2018-12-07T11:38:27.689Z,1.27
2018-12-07T11:40:55.900Z,1.37
2018-12-07T11:43:24.033Z,3.23
2018-12-07T11:45:52.205Z,2.00
2018-12-07T11:48:20.415Z,1.23
2018-12-07T11:50:48.652Z,3.87
2018-12-07T11:53:16.832Z,2.07
2018-12-07T11:55:45.030Z,1.80
2018-12-07T11:58:13.184Z,1.67
2018-12-07T12:00:41.354Z,1.40
2018-12-07T12:03:09.577Z,1.33
2018-12-07T12:05:37.696Z,3.13
2018-12-07T12:08:05.869Z,2.60
2018-12-07T12:10:34.082Z,1.17
2018-12-07T12:13:02.316Z,0.90
2018-12-07T12:15:30.497Z,1.37
2018-12-07T12:17:58.696Z,1.30
2018-12-07T12:20:26.876Z,1.83
2018-12-07T12:22:55.205Z,2.60
2018-12-07T12:25:23.621Z,1.50
2018-12-07T12:27:51.769Z,1.53
2018-12-07T12:30:19.940Z,1.20
2018-12-07T12:32:48.140Z,1.17
2018-12-07T12:35:16.293Z,0.90
2018-12-07T12:37:44.460Z,1.17
2018-12-07T12:40:12.666Z,1.20
2018-12-07T12:42:40.812Z,1.53
2018-12-07T12:45:08.993Z,1.60
2018-12-07T12:47:37.188Z,3.07
2018-12-07T12:50:07.841Z,1.50
2018-12-07T12:52:35.958Z,2.00
2018-12-07T12:55:04.185Z,2.33
2018-12-07T12:57:32.415Z,2.77
2018-12-07T13:00:00.581Z,1.93
2018-12-07T13:02:28.885Z,1.07
2018-12-07T13:04:57.041Z,1.30
2018-12-07T13:07:25.208Z,1.07
2018-12-07T13:09:53.413Z,0.83
2018-12-07T13:12:21.569Z,2.50
2018-12-07T13:14:49.829Z,0.90
2018-12-07T13:17:18.025Z,2.93
2018-12-07T13:19:46.259Z,1.20
2018-12-07T13:22:14.449Z,2.87
2018-12-07T13:24:42.744Z,1.20
2018-12-07T13:27:12.701Z,3.23
2018-12-07T13:29:41.021Z,2.50
2018-12-07T13:32:09.325Z,1.90
2018-12-07T13:34:37.433Z,1.20
2018-12-07T13:37:05.641Z,1.40
2018-12-07T13:39:33.927Z,1.27
2018-12-07T13:42:02.130Z,1.77
2018-12-07T13:44:30.372Z,2.90
2018-12-07T13:46:58.771Z,2.30
2018-12-07T13:49:27.050Z,1.47
2018-12-07T13:51:55.314Z,1.20
2018-12-07T13:54:24.151Z,3.67
2018-12-07T13:56:52.473Z,2.90
2018-12-07T13:59:20.867Z,1.90
2018-12-07T14:01:49.232Z,2.50
2018-12-07T14:04:17.847Z,1.10
2018-12-07T14:06:46.128Z,1.27
2018-12-07T14:09:14.431Z,3.63
2018-12-07T14:11:42.642Z,2.67
2018-12-07T14:14:10.961Z,2.40
2018-12-07T14:16:39.388Z,1.90
2018-12-07T14:19:07.581Z,1.50
2018-12-07T14:21:35.881Z,2.87
2018-12-07T14:24:04.319Z,2.20
2018-12-07T14:26:32.589Z,1.77
2018-12-07T14:29:01.306Z,1.77
2018-12-07T14:31:30.222Z,2.13
2018-12-07T14:33:58.612Z,1.43
2018-12-07T14:36:27.098Z,1.50
2018-12-07T14:38:55.628Z,1.83
2018-12-07T14:41:24.024Z,1.47
2018-12-07T14:43:52.915Z,3.53
2018-12-07T14:46:21.433Z,2.70
2018-12-07T14:48:49.815Z,6.00
2018-12-07T14:51:18.201Z,1.53
2018-12-07T14:53:46.616Z,1.40
2018-12-07T14:56:14.977Z,1.47
2018-12-07T14:58:43.261Z,1.93
2018-12-07T15:01:11.639Z,2.77
2018-12-07T15:03:39.901Z,2.97
2018-12-07T15:06:08.177Z,2.07
2018-12-07T15:08:36.467Z,1.80
2018-12-07T15:11:05.065Z,1.50
2018-12-07T15:13:33.694Z,1.67
2018-12-07T15:16:02.236Z,3.70
2018-12-07T15:18:30.635Z,3.53
2018-12-07T15:20:59.261Z,3.20
2018-12-07T15:23:27.550Z,3.53
2018-12-07T15:25:56.236Z,2.53
2018-12-07T15:28:24.822Z,3.33
2018-12-07T15:30:53.261Z,3.17
2018-12-07T15:33:21.589Z,2.37
2018-12-07T15:35:49.824Z,2.20
2018-12-07T15:38:18.321Z,4.00
2018-12-07T15:40:46.690Z,5.17
2018-12-07T15:43:15.021Z,4.17
2018-12-07T15:45:43.220Z,3.20
2018-12-07T15:48:11.621Z,5.93
2018-12-07T15:50:39.969Z,4.47
2018-12-07T15:53:08.341Z,2.77
2018-12-07T15:55:36.638Z,4.17
2018-12-07T15:58:05.065Z,5.40
2018-12-07T16:00:33.362Z,5.27
2018-12-07T16:03:01.752Z,5.17
2018-12-07T16:05:30.028Z,7.23
2018-12-07T16:07:58.457Z,3.90
2018-12-07T16:10:26.971Z,3.07
2018-12-07T16:12:55.285Z,3.33
2018-12-07T16:15:23.668Z,3.70
2018-12-07T16:17:52.018Z,4.47
2018-12-07T16:20:20.772Z,3.40
2018-12-07T16:22:49.265Z,2.60
2018-12-07T16:25:17.663Z,2.27
2018-12-07T16:27:46.034Z,2.77
2018-12-07T16:30:15.850Z,2.77
2018-12-07T16:32:44.594Z,2.00
2018-12-07T16:35:12.990Z,2.07
2018-12-07T16:37:41.233Z,4.77
2018-12-07T16:40:09.496Z,2.73
2018-12-07T16:42:37.730Z,2.17
2018-12-07T16:45:06.168Z,2.73
2018-12-07T16:47:34.571Z,2.10
2018-12-07T16:50:02.935Z,1.63
2018-12-07T16:52:31.415Z,2.70
2018-12-07T16:54:59.704Z,2.00
2018-12-07T16:57:28.151Z,1.70
2018-12-07T16:59:56.477Z,2.47
2018-12-07T17:02:24.748Z,1.93
2018-12-07T17:04:53.409Z,1.83
2018-12-07T17:07:21.658Z,2.23
2018-12-07T17:09:49.876Z,1.80
2018-12-07T17:12:18.210Z,1.93
2018-12-07T17:14:46.478Z,2.90
2018-12-07T17:17:14.690Z,4.70
2018-12-07T17:19:42.963Z,7.23
2018-12-07T17:22:11.282Z,5.50
2018-12-07T17:24:39.462Z,7.87
2018-12-07T17:27:07.714Z,8.60
2018-12-07T17:29:36.038Z,10.57
2018-12-07T17:32:04.875Z,17.07
2018-12-07T17:34:33.177Z,20.57
2018-12-07T17:37:01.531Z,6.60
2018-12-07T17:39:29.870Z,15.73
2018-12-07T17:41:58.088Z,3.90
2018-12-07T17:44:26.520Z,4.37
2018-12-07T17:46:54.981Z,2.27
2018-12-07T17:49:23.304Z,2.30
2018-12-07T17:51:53.332Z,3.57
2018-12-07T17:54:21.725Z,3.33
2018-12-07T17:56:50.341Z,2.87
2018-12-07T17:59:18.886Z,3.00
2018-12-07T18:01:47.138Z,2.50
2018-12-07T18:04:15.345Z,2.67
2018-12-07T18:06:43.843Z,2.93
2018-12-07T18:09:12.466Z,3.40
2018-12-07T18:11:42.131Z,5.20
2018-12-07T18:14:11.665Z,4.37
2018-12-07T18:16:41.463Z,5.93
2018-12-07T18:19:10.058Z,3.10
2018-12-07T18:21:38.647Z,3.37
2018-12-07T18:24:06.841Z,8.17
2018-12-07T18:26:35.029Z,2.50
2018-12-07T18:29:03.544Z,2.37
2018-12-07T18:31:31.773Z,2.70
2018-12-07T18:34:00.102Z,3.73
2018-12-07T18:36:28.523Z,3.27
2018-12-07T18:38:56.863Z,2.00
2018-12-07T18:41:25.105Z,2.07
2018-12-07T18:43:53.411Z,3.93
2018-12-07T18:46:21.740Z,2.87
2018-12-07T18:48:50.019Z,3.20
2018-12-07T18:51:18.651Z,4.23
2018-12-07T18:53:47.120Z,2.83
2018-12-07T18:56:15.346Z,3.60
2018-12-07T18:58:44.073Z,2.23
2018-12-07T19:01:12.462Z,3.60
2018-12-07T19:03:40.937Z,2.80
2018-12-07T19:06:09.301Z,1.63
2018-12-07T19:08:37.697Z,2.27
2018-12-07T19:11:06.259Z,1.43
2018-12-07T19:13:34.857Z,2.07
2018-12-07T19:16:03.353Z,9.57
2018-12-07T19:18:31.600Z,11.13
2018-12-07T19:21:00.052Z,11.10
2018-12-07T19:23:28.500Z,8.47
2018-12-07T19:25:57.154Z,12.03
2018-12-07T19:28:25.577Z,4.57
2018-12-07T19:30:54.085Z,3.57
2018-12-07T19:33:22.379Z,3.23
2018-12-07T19:35:50.813Z,2.20
2018-12-07T19:38:19.257Z,2.10
2018-12-07T19:40:47.642Z,2.73
2018-12-07T19:43:15.989Z,2.47
2018-12-07T19:45:44.436Z,2.20
2018-12-07T19:48:12.786Z,3.23
2018-12-07T19:50:41.248Z,3.27
2018-12-07T19:53:09.481Z,2.47
2018-12-07T19:55:37.838Z,2.83
2018-12-07T19:58:06.186Z,3.87
2018-12-07T20:00:34.483Z,3.03
2018-12-07T20:03:02.968Z,4.97
2018-12-07T20:05:31.293Z,4.07
2018-12-07T20:07:59.692Z,9.13
2018-12-07T20:10:27.912Z,8.57
2018-12-07T20:12:56.136Z,4.80
2018-12-07T20:15:24.297Z,4.10
2018-12-07T20:17:52.873Z,2.80
2018-12-07T20:20:22.314Z,3.63
2018-12-07T20:22:50.612Z,3.00
2018-12-07T20:25:18.830Z,2.20
2018-12-07T20:27:47.202Z,3.10
2018-12-07T20:30:15.588Z,2.47
2018-12-07T20:32:44.083Z,3.77
2018-12-07T20:35:12.573Z,2.33
2018-12-07T20:37:40.870Z,3.90
2018-12-07T20:40:09.294Z,3.27
2018-12-07T20:42:37.585Z,2.77
2018-12-07T20:45:06.068Z,3.10
2018-12-07T20:47:34.516Z,5.43
2018-12-07T20:50:03.027Z,2.50
2018-12-07T20:52:31.397Z,3.30
2018-12-07T20:55:00.056Z,3.93
2018-12-07T20:57:28.397Z,3.77
2018-12-07T20:59:56.830Z,4.53
2018-12-07T21:02:25.432Z,3.37
2018-12-07T21:04:56.309Z,4.87
2018-12-07T21:07:42.949Z,4.07
2018-12-07T21:10:28.525Z,4.93
2018-12-07T21:13:39.257Z,5.13
2018-12-07T21:16:39.081Z,4.17
2018-12-07T21:19:07.638Z,3.77
2018-12-07T21:21:36.043Z,3.93
2018-12-07T21:24:04.379Z,4.10
2018-12-07T21:26:32.595Z,4.70
2018-12-07T21:29:01.157Z,2.90
2018-12-07T21:31:29.612Z,4.03
2018-12-07T21:35:05.121Z,3.37
2018-12-07T21:37:33.633Z,4.60
2018-12-07T21:40:16.211Z,2.77
2018-12-07T21:42:44.529Z,2.97
2018-12-07T21:45:12.951Z,3.27
2018-12-07T21:48:24.209Z,3.87
2018-12-07T21:53:06.623Z,2.73
2018-12-07T21:55:35.097Z,2.90
2018-12-07T21:58:03.686Z,2.33
2018-12-07T22:00:32.332Z,4.67
2018-12-07T22:03:02.139Z,2.97
2018-12-07T22:05:31.013Z,2.63
2018-12-07T22:07:59.729Z,2.07
2018-12-07T22:10:28.276Z,2.30
2018-12-07T22:12:56.805Z,3.23
2018-12-07T22:15:25.185Z,2.00
2018-12-07T22:17:53.812Z,1.97
2018-12-07T22:20:22.234Z,2.07
2018-12-07T22:22:50.461Z,2.33
2018-12-07T22:25:18.829Z,1.23
2018-12-07T22:27:47.155Z,0.90
2018-12-07T22:30:15.693Z,0.50
2018-12-07T22:32:44.455Z,1.23
2018-12-07T22:35:12.932Z,2.83
2018-12-07T22:37:41.489Z,1.13
2018-12-07T22:40:09.979Z,1.20
2018-12-07T22:42:38.178Z,1.13
2018-12-07T22:45:06.576Z,0.87
2018-12-07T22:47:35.143Z,1.67
2018-12-07T22:50:03.521Z,1.27
2018-12-07T22:52:31.660Z,1.33
2018-12-07T22:54:59.981Z,2.40
2018-12-07T22:57:28.098Z,2.10
2018-12-07T22:59:56.383Z,1.00
2018-12-07T23:02:24.581Z,2.67
2018-12-07T23:04:52.747Z,3.57
2018-12-07T23:07:21.038Z,4.23
2018-12-07T23:09:49.198Z,2.13
2018-12-07T23:12:17.348Z,4.27
2018-12-07T23:14:45.534Z,5.07
2018-12-07T23:17:13.728Z,3.63
2018-12-07T23:19:41.878Z,3.23
2018-12-07T23:22:10.046Z,2.67
2018-12-07T23:24:38.193Z,4.17
2018-12-07T23:27:06.392Z,5.23
2018-12-07T23:29:34.565Z,2.77
2018-12-07T23:32:02.760Z,3.40
2018-12-07T23:34:30.911Z,5.03
2018-12-07T23:36:59.085Z,4.23
2018-12-07T23:39:27.302Z,7.93
2018-12-07T23:41:55.437Z,4.43
2018-12-07T23:44:23.658Z,5.57
2018-12-07T23:46:51.808Z,5.20
2018-12-07T23:49:20.009Z,5.50
2018-12-07T23:51:52.137Z,3.37
2018-12-07T23:54:21.217Z,5.07
2018-12-07T23:56:49.373Z,3.80
2018-12-07T23:59:17.592Z,4.17
